sensor_id;sensor_type;location;lat;lon;timestamp;P1;durP1;ratioP1;P2;durP2;ratioP2
20857;SDS011;10589;53.636;10.012;2023-02-28T04:45:36;12.40;;;4.40;;
20857;SDS011;10589;53.636;10.012;2023-02-28T04:48:02;7.03;;;3.90;;
20857;SDS011;10589;53.636;10.012;2023-02-28T04:50:28;8.27;;;4.20;;
20857;SDS011;10589;53.636;10.012;2023-02-28T04:52:53;6.53;;;4.10;;
20857;SDS011;10589;53.636;10.012;2023-02-28T04:55:19;6.90;;;4.10;;
20857;SDS011;10589;53.636;10.012;2023-02-28T04:57:45;9.03;;;3.60;;
20857;SDS011;10589;53.636;10.012;2023-02-28T05:00:10;10.40;;;4.03;;
20857;SDS011;10589;53.636;10.012;2023-02-28T05:02:37;5.53;;;4.00;;
20857;SDS011;10589;53.636;10.012;2023-02-28T05:05:04;6.80;;;4.00;;
20857;SDS011;10589;53.636;10.012;2023-02-28T05:07:30;8.30;;;4.47;;
20857;SDS011;10589;53.636;10.012;2023-02-28T05:09:56;8.30;;;4.40;;
20857;SDS011;10589;53.636;10.012;2023-02-28T05:12:21;8.27;;;4.30;;
20857;SDS011;10589;53.636;10.012;2023-02-28T05:14:47;13.33;;;4.43;;
20857;SDS011;10589;53.636;10.012;2023-02-28T05:17:12;9.10;;;4.17;;
20857;SDS011;10589;53.636;10.012;2023-02-28T05:19:38;7.00;;;4.20;;
20857;SDS011;10589;53.636;10.012;2023-02-28T05:22:03;9.37;;;4.70;;
20857;SDS011;10589;53.636;10.012;2023-02-28T05:24:29;10.00;;;4.30;;
20857;SDS011;10589;53.636;10.012;2023-02-28T05:26:55;9.73;;;4.90;;
20857;SDS011;10589;53.636;10.012;2023-02-28T05:29:21;6.90;;;4.20;;
20857;SDS011;10589;53.636;10.012;2023-02-28T05:31:47;8.57;;;4.57;;
20857;SDS011;10589;53.636;10.012;2023-02-28T05:34:13;9.03;;;4.70;;
20857;SDS011;10589;53.636;10.012;2023-02-28T05:36:40;10.67;;;4.83;;
20857;SDS011;10589;53.636;10.012;2023-02-28T05:39:06;7.93;;;4.53;;
20857;SDS011;10589;53.636;10.012;2023-02-28T05:41:38;9.23;;;4.77;;
20857;SDS011;10589;53.636;10.012;2023-02-28T05:44:05;7.60;;;4.40;;
20857;SDS011;10589;53.636;10.012;2023-02-28T05:46:31;7.27;;;4.77;;
20857;SDS011;10589;53.636;10.012;2023-02-28T05:48:56;8.73;;;4.43;;
20857;SDS011;10589;53.636;10.012;2023-02-28T05:51:24;10.07;;;4.67;;
20857;SDS011;10589;53.636;10.012;2023-02-28T05:53:50;10.30;;;4.90;;
20857;SDS011;10589;53.636;10.012;2023-02-28T05:56:16;9.33;;;4.77;;
20857;SDS011;10589;53.636;10.012;2023-02-28T05:58:41;9.77;;;4.70;;
20857;SDS011;10589;53.636;10.012;2023-02-28T06:04:00;10.83;;;5.17;;
20857;SDS011;10589;53.636;10.012;2023-02-28T06:06:27;8.73;;;5.13;;
20857;SDS011;10589;53.636;10.012;2023-02-28T06:08:52;8.33;;;5.03;;
20857;SDS011;10589;53.636;10.012;2023-02-28T06:11:18;9.83;;;5.13;;
20857;SDS011;10589;53.636;10.012;2023-02-28T06:13:45;10.57;;;5.80;;
20857;SDS011;10589;53.636;10.012;2023-02-28T06:16:11;8.77;;;4.60;;
20857;SDS011;10589;53.636;10.012;2023-02-28T06:18:36;11.43;;;5.17;;
20857;SDS011;10589;53.636;10.012;2023-02-28T06:21:02;9.50;;;5.17;;
20857;SDS011;10589;53.636;10.012;2023-02-28T06:23:28;6.73;;;4.93;;
20857;SDS011;10589;53.636;10.012;2023-02-28T06:25:54;7.70;;;5.00;;
20857;SDS011;10589;53.636;10.012;2023-02-28T06:28:23;11.67;;;5.83;;
20857;SDS011;10589;53.636;10.012;2023-02-28T06:30:49;9.40;;;5.40;;
20857;SDS011;10589;53.636;10.012;2023-02-28T06:33:14;12.23;;;5.80;;
20857;SDS011;10589;53.636;10.012;2023-02-28T06:35:43;12.07;;;5.63;;
20857;SDS011;10589;53.636;10.012;2023-02-28T06:38:09;13.03;;;6.17;;
20857;SDS011;10589;53.636;10.012;2023-02-28T06:40:35;9.83;;;5.90;;
20857;SDS011;10589;53.636;10.012;2023-02-28T06:43:02;11.53;;;5.83;;
20857;SDS011;10589;53.636;10.012;2023-02-28T06:45:28;11.43;;;5.43;;
20857;SDS011;10589;53.636;10.012;2023-02-28T06:47:53;10.50;;;5.90;;
20857;SDS011;10589;53.636;10.012;2023-02-28T06:50:19;10.77;;;5.60;;
20857;SDS011;10589;53.636;10.012;2023-02-28T06:52:45;8.03;;;5.97;;
20857;SDS011;10589;53.636;10.012;2023-02-28T06:55:11;11.30;;;5.70;;
20857;SDS011;10589;53.636;10.012;2023-02-28T06:57:37;12.47;;;5.73;;
20857;SDS011;10589;53.636;10.012;2023-02-28T07:00:04;12.00;;;6.20;;
20857;SDS011;10589;53.636;10.012;2023-02-28T07:02:32;12.27;;;6.43;;
20857;SDS011;10589;53.636;10.012;2023-02-28T07:04:58;12.67;;;6.00;;
20857;SDS011;10589;53.636;10.012;2023-02-28T07:07:24;9.37;;;5.97;;
20857;SDS011;10589;53.636;10.012;2023-02-28T07:09:50;11.13;;;6.07;;
20857;SDS011;10589;53.636;10.012;2023-02-28T07:12:15;11.63;;;6.37;;
20857;SDS011;10589;53.636;10.012;2023-02-28T07:14:41;10.67;;;7.10;;
20857;SDS011;10589;53.636;10.012;2023-02-28T07:17:07;10.77;;;6.70;;
20857;SDS011;10589;53.636;10.012;2023-02-28T07:19:35;11.83;;;7.17;;
20857;SDS011;10589;53.636;10.012;2023-02-28T07:22:01;12.63;;;6.90;;
20857;SDS011;10589;53.636;10.012;2023-02-28T07:24:27;13.90;;;7.70;;
20857;SDS011;10589;53.636;10.012;2023-02-28T07:26:54;13.40;;;7.30;;
20857;SDS011;10589;53.636;10.012;2023-02-28T07:29:20;13.10;;;7.57;;
20857;SDS011;10589;53.636;10.012;2023-02-28T07:31:45;10.43;;;7.00;;
20857;SDS011;10589;53.636;10.012;2023-02-28T07:34:11;16.50;;;6.73;;
20857;SDS011;10589;53.636;10.012;2023-02-28T07:36:38;12.97;;;7.40;;
20857;SDS011;10589;53.636;10.012;2023-02-28T07:39:03;10.87;;;7.53;;
20857;SDS011;10589;53.636;10.012;2023-02-28T07:41:29;14.07;;;7.83;;
20857;SDS011;10589;53.636;10.012;2023-02-28T07:43:58;14.90;;;8.60;;
20857;SDS011;10589;53.636;10.012;2023-02-28T07:46:24;16.23;;;8.27;;
20857;SDS011;10589;53.636;10.012;2023-02-28T07:48:50;14.27;;;7.87;;
20857;SDS011;10589;53.636;10.012;2023-02-28T07:51:17;13.77;;;8.67;;
20857;SDS011;10589;53.636;10.012;2023-02-28T07:53:43;18.93;;;8.60;;
20857;SDS011;10589;53.636;10.012;2023-02-28T07:56:09;18.87;;;8.10;;
20857;SDS011;10589;53.636;10.012;2023-02-28T07:58:35;13.33;;;7.80;;
20857;SDS011;10589;53.636;10.012;2023-02-28T08:01:08;13.10;;;7.77;;
20857;SDS011;10589;53.636;10.012;2023-02-28T08:03:35;13.10;;;8.60;;
20857;SDS011;10589;53.636;10.012;2023-02-28T08:06:01;12.63;;;7.83;;
20857;SDS011;10589;53.636;10.012;2023-02-28T08:08:28;11.30;;;7.80;;
20857;SDS011;10589;53.636;10.012;2023-02-28T08:10:57;16.27;;;7.90;;
20857;SDS011;10589;53.636;10.012;2023-02-28T08:13:25;12.63;;;8.23;;
20857;SDS011;10589;53.636;10.012;2023-02-28T08:15:52;11.17;;;7.13;;
20857;SDS011;10589;53.636;10.012;2023-02-28T08:18:19;17.20;;;8.13;;
20857;SDS011;10589;53.636;10.012;2023-02-28T08:20:46;12.30;;;7.97;;
20857;SDS011;10589;53.636;10.012;2023-02-28T08:23:11;14.70;;;7.53;;
20857;SDS011;10589;53.636;10.012;2023-02-28T08:25:37;13.93;;;7.20;;
20857;SDS011;10589;53.636;10.012;2023-02-28T08:28:03;12.80;;;7.63;;
20857;SDS011;10589;53.636;10.012;2023-02-28T08:30:28;13.50;;;7.67;;
20857;SDS011;10589;53.636;10.012;2023-02-28T08:32:54;10.07;;;6.50;;
20857;SDS011;10589;53.636;10.012;2023-02-28T08:35:20;14.60;;;7.03;;
20857;SDS011;10589;53.636;10.012;2023-02-28T08:37:49;16.47;;;6.37;;
20857;SDS011;10589;53.636;10.012;2023-02-28T08:40:16;9.37;;;6.20;;
20857;SDS011;10589;53.636;10.012;2023-02-28T08:42:45;10.23;;;6.20;;
20857;SDS011;10589;53.636;10.012;2023-02-28T08:45:11;9.27;;;5.80;;
20857;SDS011;10589;53.636;10.012;2023-02-28T08:47:37;9.10;;;4.90;;
20857;SDS011;10589;53.636;10.012;2023-02-28T08:50:03;8.67;;;4.60;;
20857;SDS011;10589;53.636;10.012;2023-02-28T08:52:30;8.13;;;4.90;;
20857;SDS011;10589;53.636;10.012;2023-02-28T08:54:55;8.17;;;4.10;;
20857;SDS011;10589;53.636;10.012;2023-02-28T08:57:21;9.50;;;4.60;;
20857;SDS011;10589;53.636;10.012;2023-02-28T08:59:47;10.30;;;4.87;;
20857;SDS011;10589;53.636;10.012;2023-02-28T09:02:13;8.07;;;4.50;;
20857;SDS011;10589;53.636;10.012;2023-02-28T09:04:39;8.53;;;4.40;;
20857;SDS011;10589;53.636;10.012;2023-02-28T09:07:06;8.53;;;4.37;;
20857;SDS011;10589;53.636;10.012;2023-02-28T09:09:32;6.40;;;4.10;;
20857;SDS011;10589;53.636;10.012;2023-02-28T09:11:58;8.23;;;4.40;;
20857;SDS011;10589;53.636;10.012;2023-02-28T09:14:23;8.80;;;4.37;;
20857;SDS011;10589;53.636;10.012;2023-02-28T09:16:49;9.23;;;3.53;;
20857;SDS011;10589;53.636;10.012;2023-02-28T09:19:15;5.77;;;3.70;;
20857;SDS011;10589;53.636;10.012;2023-02-28T09:21:40;4.87;;;3.10;;
20857;SDS011;10589;53.636;10.012;2023-02-28T09:24:06;3.97;;;1.93;;
20857;SDS011;10589;53.636;10.012;2023-02-28T09:26:32;5.43;;;3.20;;
20857;SDS011;10589;53.636;10.012;2023-02-28T09:28:59;5.07;;;1.80;;
20857;SDS011;10589;53.636;10.012;2023-02-28T09:31:26;2.53;;;1.40;;
20857;SDS011;10589;53.636;10.012;2023-02-28T09:33:53;4.50;;;1.07;;
20857;SDS011;10589;53.636;10.012;2023-02-28T09:36:20;5.23;;;1.30;;
20857;SDS011;10589;53.636;10.012;2023-02-28T09:38:46;3.30;;;1.60;;
20857;SDS011;10589;53.636;10.012;2023-02-28T09:41:19;2.40;;;1.40;;
20857;SDS011;10589;53.636;10.012;2023-02-28T09:43:48;2.67;;;1.67;;
20857;SDS011;10589;53.636;10.012;2023-02-28T09:46:35;4.40;;;1.80;;
20857;SDS011;10589;53.636;10.012;2023-02-28T09:49:17;3.40;;;1.47;;
20857;SDS011;10589;53.636;10.012;2023-02-28T09:52:05;4.50;;;1.47;;
20857;SDS011;10589;53.636;10.012;2023-02-28T09:54:45;3.43;;;1.33;;
20857;SDS011;10589;53.636;10.012;2023-02-28T10:00:07;3.10;;;1.80;;
20857;SDS011;10589;53.636;10.012;2023-02-28T10:02:48;3.17;;;1.67;;
20857;SDS011;10589;53.636;10.012;2023-02-28T10:05:38;5.23;;;1.60;;
20857;SDS011;10589;53.636;10.012;2023-02-28T10:10:42;2.30;;;1.40;;
20857;SDS011;10589;53.636;10.012;2023-02-28T10:16:05;3.80;;;1.60;;
20857;SDS011;10589;53.636;10.012;2023-02-28T10:18:59;4.87;;;1.20;;
20857;SDS011;10589;53.636;10.012;2023-02-28T10:21:31;1.37;;;1.13;;
20857;SDS011;10589;53.636;10.012;2023-02-28T10:24:28;2.67;;;1.03;;
20857;SDS011;10589;53.636;10.012;2023-02-28T10:26:51;2.70;;;1.40;;
20857;SDS011;10589;53.636;10.012;2023-02-28T10:29:20;2.60;;;1.40;;
20857;SDS011;10589;53.636;10.012;2023-02-28T10:31:46;3.60;;;1.30;;
20857;SDS011;10589;53.636;10.012;2023-02-28T10:34:12;3.83;;;1.87;;
20857;SDS011;10589;53.636;10.012;2023-02-28T10:36:38;2.57;;;1.57;;
20857;SDS011;10589;53.636;10.012;2023-02-28T10:41:59;4.17;;;1.30;;
20857;SDS011;10589;53.636;10.012;2023-02-28T10:44:25;2.30;;;1.30;;
20857;SDS011;10589;53.636;10.012;2023-02-28T10:46:50;2.57;;;1.00;;
20857;SDS011;10589;53.636;10.012;2023-02-28T10:49:22;2.27;;;1.03;;
20857;SDS011;10589;53.636;10.012;2023-02-28T10:51:52;1.73;;;1.03;;
20857;SDS011;10589;53.636;10.012;2023-02-28T10:54:28;3.13;;;1.40;;
20857;SDS011;10589;53.636;10.012;2023-02-28T10:57:16;3.17;;;1.37;;
20857;SDS011;10589;53.636;10.012;2023-02-28T10:59:45;2.73;;;1.30;;
20857;SDS011;10589;53.636;10.012;2023-02-28T11:02:29;3.13;;;1.50;;
20857;SDS011;10589;53.636;10.012;2023-02-28T11:05:21;6.53;;;1.60;;
20857;SDS011;10589;53.636;10.012;2023-02-28T11:07:56;1.80;;;1.13;;
20857;SDS011;10589;53.636;10.012;2023-02-28T11:10:28;3.40;;;1.07;;
20857;SDS011;10589;53.636;10.012;2023-02-28T11:12:59;1.40;;;1.00;;
20857;SDS011;10589;53.636;10.012;2023-02-28T11:15:27;2.60;;;1.43;;
20857;SDS011;10589;53.636;10.012;2023-02-28T11:20:39;4.03;;;1.47;;
20857;SDS011;10589;53.636;10.012;2023-02-28T11:23:05;2.43;;;1.33;;
20857;SDS011;10589;53.636;10.012;2023-02-28T11:25:38;4.03;;;1.80;;
20857;SDS011;10589;53.636;10.012;2023-02-28T11:28:05;4.70;;;1.57;;
20857;SDS011;10589;53.636;10.012;2023-02-28T11:31:22;2.73;;;1.57;;
20857;SDS011;10589;53.636;10.012;2023-02-28T11:36:22;2.13;;;1.10;;
20857;SDS011;10589;53.636;10.012;2023-02-28T11:39:07;2.60;;;1.23;;
20857;SDS011;10589;53.636;10.012;2023-02-28T11:41:58;5.53;;;1.30;;
20857;SDS011;10589;53.636;10.012;2023-02-28T11:47:58;2.47;;;1.60;;
20857;SDS011;10589;53.636;10.012;2023-02-28T11:53:20;3.57;;;1.43;;
20857;SDS011;10589;53.636;10.012;2023-02-28T11:58:59;5.03;;;1.37;;
20857;SDS011;10589;53.636;10.012;2023-02-28T12:04:28;3.13;;;1.33;;
20857;SDS011;10589;53.636;10.012;2023-02-28T12:07:18;2.43;;;1.40;;
20857;SDS011;10589;53.636;10.012;2023-02-28T12:12:29;3.63;;;1.60;;
20857;SDS011;10589;53.636;10.012;2023-02-28T12:17:56;3.50;;;1.73;;
20857;SDS011;10589;53.636;10.012;2023-02-28T12:26:46;2.77;;;1.50;;
20857;SDS011;10589;53.636;10.012;2023-02-28T12:29:26;3.90;;;1.30;;
20857;SDS011;10589;53.636;10.012;2023-02-28T12:31:56;3.17;;;1.50;;
20857;SDS011;10589;53.636;10.012;2023-02-28T12:34:44;2.90;;;1.30;;
20857;SDS011;10589;53.636;10.012;2023-02-28T12:37:19;3.67;;;1.63;;
20857;SDS011;10589;53.636;10.012;2023-02-28T12:39:51;3.57;;;1.83;;
20857;SDS011;10589;53.636;10.012;2023-02-28T12:42:59;1.67;;;1.40;;
20857;SDS011;10589;53.636;10.012;2023-02-28T12:45:20;5.83;;;2.00;;
20857;SDS011;10589;53.636;10.012;2023-02-28T12:47:50;2.50;;;1.40;;
20857;SDS011;10589;53.636;10.012;2023-02-28T12:50:22;2.23;;;1.77;;
20857;SDS011;10589;53.636;10.012;2023-02-28T12:53:06;3.47;;;1.50;;
20857;SDS011;10589;53.636;10.012;2023-02-28T13:01:42;6.57;;;1.97;;
20857;SDS011;10589;53.636;10.012;2023-02-28T13:04:43;3.77;;;1.70;;
20857;SDS011;10589;53.636;10.012;2023-02-28T13:10:20;3.37;;;1.80;;
20857;SDS011;10589;53.636;10.012;2023-02-28T13:12:50;2.03;;;1.43;;
20857;SDS011;10589;53.636;10.012;2023-02-28T13:17:50;3.60;;;1.70;;
20857;SDS011;10589;53.636;10.012;2023-02-28T13:20:46;3.53;;;1.50;;
20857;SDS011;10589;53.636;10.012;2023-02-28T13:23:35;3.50;;;1.20;;
20857;SDS011;10589;53.636;10.012;2023-02-28T13:26:02;5.27;;;1.53;;
20857;SDS011;10589;53.636;10.012;2023-02-28T13:31:15;6.55;;;1.52;;
20857;SDS011;10589;53.636;10.012;2023-02-28T13:38:40;3.05;;;1.75;;
20857;SDS011;10589;53.636;10.012;2023-02-28T13:44:03;3.72;;;1.50;;
20857;SDS011;10589;53.636;10.012;2023-02-28T13:46:29;3.85;;;1.63;;
20857;SDS011;10589;53.636;10.012;2023-02-28T13:48:56;3.83;;;1.33;;
20857;SDS011;10589;53.636;10.012;2023-02-28T13:51:35;4.80;;;1.58;;
20857;SDS011;10589;53.636;10.012;2023-02-28T14:05:10;3.05;;;1.58;;
20857;SDS011;10589;53.636;10.012;2023-02-28T14:07:48;2.90;;;1.52;;
20857;SDS011;10589;53.636;10.012;2023-02-28T14:11:02;2.55;;;1.20;;
20857;SDS011;10589;53.636;10.012;2023-02-28T14:13:13;6.28;;;1.90;;
20857;SDS011;10589;53.636;10.012;2023-02-28T14:16:24;3.83;;;1.88;;
20857;SDS011;10589;53.636;10.012;2023-02-28T14:21:32;5.45;;;2.05;;
20857;SDS011;10589;53.636;10.012;2023-02-28T14:33:00;3.13;;;1.80;;
20857;SDS011;10589;53.636;10.012;2023-02-28T14:38:41;3.20;;;1.30;;
20857;SDS011;10589;53.636;10.012;2023-02-28T14:41:15;4.25;;;2.15;;
20857;SDS011;10589;53.636;10.012;2023-02-28T14:43:49;3.60;;;1.75;;
20857;SDS011;10589;53.636;10.012;2023-02-28T14:46:16;2.97;;;1.38;;
20857;SDS011;10589;53.636;10.012;2023-02-28T14:48:47;3.85;;;1.38;;
20857;SDS011;10589;53.636;10.012;2023-02-28T14:51:20;2.05;;;1.38;;
20857;SDS011;10589;53.636;10.012;2023-02-28T14:54:05;2.72;;;1.55;;
20857;SDS011;10589;53.636;10.012;2023-02-28T14:56:38;2.22;;;1.30;;
20857;SDS011;10589;53.636;10.012;2023-02-28T14:59:05;2.22;;;1.33;;
20857;SDS011;10589;53.636;10.012;2023-02-28T15:01:47;3.65;;;1.40;;
20857;SDS011;10589;53.636;10.012;2023-02-28T15:04:18;2.28;;;1.40;;
20857;SDS011;10589;53.636;10.012;2023-02-28T15:07:11;2.28;;;1.27;;
20857;SDS011;10589;53.636;10.012;2023-02-28T15:09:38;3.40;;;1.30;;
20857;SDS011;10589;53.636;10.012;2023-02-28T15:12:03;1.85;;;1.30;;
20857;SDS011;10589;53.636;10.012;2023-02-28T15:14:29;2.05;;;1.35;;
20857;SDS011;10589;53.636;10.012;2023-02-28T15:16:57;3.38;;;1.42;;
20857;SDS011;10589;53.636;10.012;2023-02-28T15:19:34;2.10;;;1.48;;
20857;SDS011;10589;53.636;10.012;2023-02-28T15:22:11;4.22;;;1.60;;
20857;SDS011;10589;53.636;10.012;2023-02-28T15:24:42;2.80;;;1.63;;
20857;SDS011;10589;53.636;10.012;2023-02-28T15:27:18;2.33;;;1.50;;
20857;SDS011;10589;53.636;10.012;2023-02-28T15:29:48;2.73;;;1.80;;
20857;SDS011;10589;53.636;10.012;2023-02-28T15:32:27;2.60;;;1.53;;
20857;SDS011;10589;53.636;10.012;2023-02-28T15:34:56;2.73;;;1.50;;
20857;SDS011;10589;53.636;10.012;2023-02-28T15:39:53;2.93;;;1.40;;
20857;SDS011;10589;53.636;10.012;2023-02-28T15:42:21;2.27;;;1.83;;
20857;SDS011;10589;53.636;10.012;2023-02-28T15:44:56;3.00;;;1.50;;
20857;SDS011;10589;53.636;10.012;2023-02-28T15:47:23;6.20;;;1.70;;
20857;SDS011;10589;53.636;10.012;2023-02-28T15:49:52;2.53;;;1.40;;
20857;SDS011;10589;53.636;10.012;2023-02-28T15:52:33;5.17;;;2.13;;
20857;SDS011;10589;53.636;10.012;2023-02-28T15:55:08;2.63;;;2.00;;
20857;SDS011;10589;53.636;10.012;2023-02-28T15:57:33;3.00;;;1.93;;
20857;SDS011;10589;53.636;10.012;2023-02-28T16:00:00;4.07;;;1.90;;
20857;SDS011;10589;53.636;10.012;2023-02-28T16:02:35;2.53;;;1.80;;
20857;SDS011;10589;53.636;10.012;2023-02-28T16:07:33;2.40;;;1.40;;
20857;SDS011;10589;53.636;10.012;2023-02-28T16:10:00;2.30;;;1.77;;
20857;SDS011;10589;53.636;10.012;2023-02-28T16:12:27;3.20;;;1.80;;
20857;SDS011;10589;53.636;10.012;2023-02-28T16:14:59;4.00;;;2.00;;
20857;SDS011;10589;53.636;10.012;2023-02-28T16:17:29;3.43;;;2.13;;
20857;SDS011;10589;53.636;10.012;2023-02-28T16:19:57;2.93;;;2.00;;
20857;SDS011;10589;53.636;10.012;2023-02-28T16:22:24;2.67;;;1.47;;
20857;SDS011;10589;53.636;10.012;2023-02-28T16:24:51;6.60;;;2.33;;
20857;SDS011;10589;53.636;10.012;2023-02-28T16:29:46;4.27;;;1.80;;
20857;SDS011;10589;53.636;10.012;2023-02-28T16:32:15;4.73;;;2.23;;
20857;SDS011;10589;53.636;10.012;2023-02-28T16:34:42;4.60;;;1.73;;
20857;SDS011;10589;53.636;10.012;2023-02-28T16:37:12;2.03;;;1.50;;
20857;SDS011;10589;53.636;10.012;2023-02-28T16:39:40;4.20;;;1.87;;
20857;SDS011;10589;53.636;10.012;2023-02-28T16:42:08;4.23;;;1.80;;
20857;SDS011;10589;53.636;10.012;2023-02-28T16:44:50;3.50;;;1.80;;
20857;SDS011;10589;53.636;10.012;2023-02-28T16:47:17;2.53;;;1.60;;
20857;SDS011;10589;53.636;10.012;2023-02-28T16:49:43;3.60;;;1.53;;
20857;SDS011;10589;53.636;10.012;2023-02-28T16:52:09;2.40;;;1.60;;
20857;SDS011;10589;53.636;10.012;2023-02-28T16:54:35;3.27;;;1.80;;
20857;SDS011;10589;53.636;10.012;2023-02-28T16:57:01;3.70;;;1.70;;
20857;SDS011;10589;53.636;10.012;2023-02-28T16:59:27;2.57;;;1.90;;
20857;SDS011;10589;53.636;10.012;2023-02-28T17:01:54;3.47;;;1.50;;
20857;SDS011;10589;53.636;10.012;2023-02-28T17:04:22;4.13;;;1.80;;
20857;SDS011;10589;53.636;10.012;2023-02-28T17:06:48;3.10;;;1.57;;
20857;SDS011;10589;53.636;10.012;2023-02-28T17:09:18;3.23;;;1.90;;
20857;SDS011;10589;53.636;10.012;2023-02-28T17:11:46;4.30;;;1.70;;
20857;SDS011;10589;53.636;10.012;2023-02-28T17:14:12;3.97;;;1.90;;
20857;SDS011;10589;53.636;10.012;2023-02-28T17:16:39;4.33;;;2.03;;
20857;SDS011;10589;53.636;10.012;2023-02-28T17:19:06;2.53;;;1.67;;
20857;SDS011;10589;53.636;10.012;2023-02-28T17:21:36;3.90;;;1.80;;
20857;SDS011;10589;53.636;10.012;2023-02-28T17:24:02;3.33;;;2.10;;
20857;SDS011;10589;53.636;10.012;2023-02-28T17:26:28;3.40;;;2.30;;
20857;SDS011;10589;53.636;10.012;2023-02-28T17:28:54;3.90;;;2.27;;
20857;SDS011;10589;53.636;10.012;2023-02-28T17:31:24;4.80;;;2.20;;
20857;SDS011;10589;53.636;10.012;2023-02-28T17:33:51;3.97;;;2.80;;
20857;SDS011;10589;53.636;10.012;2023-02-28T17:36:20;4.73;;;3.40;;
20857;SDS011;10589;53.636;10.012;2023-02-28T17:38:48;5.17;;;3.67;;
20857;SDS011;10589;53.636;10.012;2023-02-28T17:41:14;8.20;;;3.80;;
20857;SDS011;10589;53.636;10.012;2023-02-28T17:43:40;4.70;;;3.20;;
20857;SDS011;10589;53.636;10.012;2023-02-28T17:46:06;6.77;;;3.70;;
20857;SDS011;10589;53.636;10.012;2023-02-28T17:48:43;5.10;;;3.60;;
20857;SDS011;10589;53.636;10.012;2023-02-28T17:51:10;6.93;;;4.00;;
20857;SDS011;10589;53.636;10.012;2023-02-28T17:53:38;6.10;;;3.93;;
20857;SDS011;10589;53.636;10.012;2023-02-28T17:56:03;6.13;;;3.50;;
20857;SDS011;10589;53.636;10.012;2023-02-28T17:58:29;5.37;;;3.30;;
20857;SDS011;10589;53.636;10.012;2023-02-28T18:00:56;5.83;;;3.20;;
20857;SDS011;10589;53.636;10.012;2023-02-28T18:03:21;7.23;;;3.10;;
20857;SDS011;10589;53.636;10.012;2023-02-28T18:05:49;5.13;;;2.80;;
20857;SDS011;10589;53.636;10.012;2023-02-28T18:08:15;5.60;;;3.10;;
20857;SDS011;10589;53.636;10.012;2023-02-28T18:10:41;4.10;;;2.47;;
20857;SDS011;10589;53.636;10.012;2023-02-28T18:13:07;5.43;;;2.97;;
20857;SDS011;10589;53.636;10.012;2023-02-28T18:15:33;4.43;;;2.60;;
20857;SDS011;10589;53.636;10.012;2023-02-28T18:17:59;4.40;;;2.67;;
20857;SDS011;10589;53.636;10.012;2023-02-28T18:20:24;4.97;;;2.80;;
20857;SDS011;10589;53.636;10.012;2023-02-28T18:22:51;4.30;;;3.10;;
20857;SDS011;10589;53.636;10.012;2023-02-28T18:25:16;5.30;;;2.90;;
20857;SDS011;10589;53.636;10.012;2023-02-28T18:27:42;4.03;;;2.90;;
20857;SDS011;10589;53.636;10.012;2023-02-28T18:30:18;5.97;;;3.10;;
20857;SDS011;10589;53.636;10.012;2023-02-28T18:32:45;4.63;;;2.70;;
20857;SDS011;10589;53.636;10.012;2023-02-28T18:35:10;5.17;;;2.97;;
20857;SDS011;10589;53.636;10.012;2023-02-28T18:37:37;4.17;;;2.63;;
20857;SDS011;10589;53.636;10.012;2023-02-28T18:40:03;4.40;;;2.60;;
20857;SDS011;10589;53.636;10.012;2023-02-28T18:42:30;4.07;;;3.00;;
20857;SDS011;10589;53.636;10.012;2023-02-28T18:44:55;3.90;;;2.80;;
20857;SDS011;10589;53.636;10.012;2023-02-28T18:47:21;7.03;;;3.60;;
20857;SDS011;10589;53.636;10.012;2023-02-28T18:49:47;5.83;;;3.40;;
20857;SDS011;10589;53.636;10.012;2023-02-28T18:52:12;4.83;;;3.03;;
20857;SDS011;10589;53.636;10.012;2023-02-28T18:54:38;5.50;;;3.67;;
20857;SDS011;10589;53.636;10.012;2023-02-28T18:57:03;7.03;;;3.40;;
20857;SDS011;10589;53.636;10.012;2023-02-28T18:59:29;6.03;;;4.00;;
20857;SDS011;10589;53.636;10.012;2023-02-28T19:01:55;5.83;;;4.10;;
20857;SDS011;10589;53.636;10.012;2023-02-28T19:04:22;8.53;;;4.90;;
20857;SDS011;10589;53.636;10.012;2023-02-28T19:06:48;11.33;;;5.63;;
20857;SDS011;10589;53.636;10.012;2023-02-28T19:09:13;8.47;;;5.37;;
20857;SDS011;10589;53.636;10.012;2023-02-28T19:11:39;9.47;;;5.50;;
20857;SDS011;10589;53.636;10.012;2023-02-28T19:14:05;9.73;;;5.40;;
20857;SDS011;10589;53.636;10.012;2023-02-28T19:16:32;10.10;;;5.40;;
20857;SDS011;10589;53.636;10.012;2023-02-28T19:18:57;8.40;;;5.50;;
20857;SDS011;10589;53.636;10.012;2023-02-28T19:21:23;10.80;;;6.07;;
20857;SDS011;10589;53.636;10.012;2023-02-28T19:23:50;7.20;;;5.43;;
20857;SDS011;10589;53.636;10.012;2023-02-28T19:26:17;10.13;;;6.17;;
20857;SDS011;10589;53.636;10.012;2023-02-28T19:28:44;9.67;;;5.23;;
20857;SDS011;10589;53.636;10.012;2023-02-28T19:31:15;9.27;;;6.03;;
20857;SDS011;10589;53.636;10.012;2023-02-28T19:33:42;10.10;;;6.60;;
20857;SDS011;10589;53.636;10.012;2023-02-28T19:36:09;11.00;;;6.43;;
20857;SDS011;10589;53.636;10.012;2023-02-28T19:38:36;9.97;;;6.07;;
20857;SDS011;10589;53.636;10.012;2023-02-28T19:41:04;10.63;;;6.33;;
20857;SDS011;10589;53.636;10.012;2023-02-28T19:43:31;13.13;;;7.27;;
20857;SDS011;10589;53.636;10.012;2023-02-28T19:45:57;11.83;;;8.13;;
20857;SDS011;10589;53.636;10.012;2023-02-28T19:48:23;14.10;;;8.13;;
20857;SDS011;10589;53.636;10.012;2023-02-28T19:51:00;12.90;;;8.53;;
20857;SDS011;10589;53.636;10.012;2023-02-28T19:53:30;11.80;;;8.00;;
20857;SDS011;10589;53.636;10.012;2023-02-28T19:55:57;15.80;;;8.33;;
20857;SDS011;10589;53.636;10.012;2023-02-28T19:58:24;14.60;;;8.73;;
20857;SDS011;10589;53.636;10.012;2023-02-28T20:00:50;15.40;;;9.27;;
20857;SDS011;10589;53.636;10.012;2023-02-28T20:03:16;12.10;;;8.20;;
20857;SDS011;10589;53.636;10.012;2023-02-28T20:05:45;13.13;;;8.73;;
20857;SDS011;10589;53.636;10.012;2023-02-28T20:08:11;14.07;;;9.17;;
20857;SDS011;10589;53.636;10.012;2023-02-28T20:10:37;13.77;;;8.40;;
20857;SDS011;10589;53.636;10.012;2023-02-28T20:13:03;13.37;;;7.43;;
20857;SDS011;10589;53.636;10.012;2023-02-28T20:15:29;13.17;;;6.80;;
20857;SDS011;10589;53.636;10.012;2023-02-28T20:17:56;16.47;;;7.17;;
20857;SDS011;10589;53.636;10.012;2023-02-28T20:20:23;14.53;;;8.83;;
20857;SDS011;10589;53.636;10.012;2023-02-28T20:22:49;16.03;;;9.00;;
20857;SDS011;10589;53.636;10.012;2023-02-28T20:25:15;14.50;;;8.23;;
20857;SDS011;10589;53.636;10.012;2023-02-28T20:27:41;14.77;;;8.80;;
20857;SDS011;10589;53.636;10.012;2023-02-28T20:30:07;15.03;;;8.30;;
20857;SDS011;10589;53.636;10.012;2023-02-28T20:32:33;13.40;;;8.00;;
20857;SDS011;10589;53.636;10.012;2023-02-28T20:34:59;14.67;;;7.83;;
20857;SDS011;10589;53.636;10.012;2023-02-28T20:37:26;16.73;;;7.23;;
20857;SDS011;10589;53.636;10.012;2023-02-28T20:39:52;11.83;;;6.87;;
20857;SDS011;10589;53.636;10.012;2023-02-28T20:42:17;14.77;;;7.80;;
20857;SDS011;10589;53.636;10.012;2023-02-28T20:44:43;14.90;;;8.07;;
20857;SDS011;10589;53.636;10.012;2023-02-28T20:47:09;15.37;;;8.90;;
20857;SDS011;10589;53.636;10.012;2023-02-28T20:49:35;15.20;;;8.37;;
20857;SDS011;10589;53.636;10.012;2023-02-28T20:52:01;15.30;;;8.27;;
20857;SDS011;10589;53.636;10.012;2023-02-28T20:54:27;15.10;;;9.50;;
20857;SDS011;10589;53.636;10.012;2023-02-28T20:56:54;12.97;;;8.50;;
20857;SDS011;10589;53.636;10.012;2023-02-28T20:59:19;16.50;;;9.07;;
20857;SDS011;10589;53.636;10.012;2023-02-28T21:01:46;15.50;;;9.23;;
20857;SDS011;10589;53.636;10.012;2023-02-28T21:04:12;18.07;;;10.53;;
20857;SDS011;10589;53.636;10.012;2023-02-28T21:06:38;16.90;;;10.30;;